| time (UTC) | temp F | wind direction | speed MPH | gust MPH | rain 1hr in | rain 24hr in | rain mn in | humidity % | barometer mb |
| 20260509090004 | 69 | 174 | 8.0 | 11.0 | 0.00 | 0.00 | 0.00 | 74 | 1012.3 |
| 20260509085713 | 70 | 174 | 8.0 | 11.0 | 0.00 | 0.00 | 0.00 | 74 | 1012.3 |
| 20260509085005 | 70 | 160 | 8.0 | 12.0 | 0.00 | 0.00 | 0.00 | 74 | 1012.3 |
| 20260509084714 | 70 | 153 | 8.0 | 12.0 | 0.00 | 0.00 | 0.00 | 74 | 1012.3 |
| 20260509084003 | 70 | 144 | 9.0 | 14.0 | 0.00 | 0.00 | 0.00 | 74 | 1011.3 |
| 20260509083504 | 70 | 129 | 7.0 | 12.0 | 0.00 | 0.00 | 0.00 | 74 | 1011.3 |
| 20260509083004 | 70 | 125 | 8.0 | 12.0 | 0.00 | 0.00 | 0.00 | 73 | 1011.3 |
| 20260509082504 | 69 | 105 | 10.0 | 14.0 | 0.00 | 0.00 | 0.00 | 73 | 1011.3 |
| 20260509082214 | 69 | 95 | 10.0 | 14.0 | 0.00 | 0.00 | 0.00 | 73 | 1011.3 |
| 20260509081504 | 69 | 92 | 11.0 | 14.0 | 0.00 | 0.00 | 0.00 | 72 | 1011.3 |
| 20260509081004 | 69 | 96 | 10.0 | 14.0 | 0.00 | 0.00 | 0.00 | 72 | 1011.3 |
| 20260509080504 | 69 | 95 | 11.0 | 14.0 | 0.00 | 0.00 | 0.00 | 71 | 1011.3 |
| 20260509080004 | 69 | 92 | 11.0 | 15.0 | 0.00 | 0.00 | 0.00 | 70 | 1011.3 |
| 20260509075504 | 70 | 81 | 11.0 | 15.0 | 0.00 | 0.00 | 0.00 | 67 | 1011.3 |
| 20260509075217 | 71 | 72 | 12.0 | 17.0 | 0.00 | 0.00 | 0.00 | 67 | 1011.3 |
| 20260509074504 | 72 | 41 | 13.0 | 17.0 | 0.00 | 0.00 | 0.00 | 61 | 1011.3 |
| 20260509074218 | 71 | 33 | 12.0 | 17.0 | 0.00 | 0.00 | 0.00 | 64 | 1011.3 |
| 20260509073504 | 70 | 36 | 11.0 | 14.0 | 0.00 | 0.00 | 0.00 | 66 | 1011.3 |
| 20260509073004 | 69 | 51 | 8.0 | 14.0 | 0.00 | 0.00 | 0.00 | 74 | 1011.3 |
| 20260509072504 | 68 | 91 | 5.0 | 12.0 | 0.00 | 0.00 | 0.00 | 83 | 1011.3 |
| 20260509072004 | 68 | 161 | 4.0 | 7.0 | 0.00 | 0.00 | 0.00 | 85 | 1011.3 |
| 20260509071504 | 68 | 158 | 3.0 | 7.0 | 0.00 | 0.00 | 0.00 | 86 | 1011.3 |
| 20260509071004 | 68 | 169 | 4.0 | 7.0 | 0.00 | 0.00 | 0.00 | 86 | 1011.3 |
| 20260509070504 | 67 | 171 | 6.0 | 7.0 | 0.00 | 0.00 | 0.00 | 86 | 1011.3 |
| 20260509070217 | 67 | 171 | 5.0 | 7.0 | 0.00 | 0.00 | 0.00 | 87 | 1011.3 |
| 20260509065504 | 67 | 178 | 5.0 | 8.0 | 0.00 | 0.00 | 0.00 | 87 | 1011.3 |
| 20260509065218 | 66 | 170 | 5.0 | 8.0 | 0.00 | 0.00 | 0.00 | 87 | 1011.3 |
| 20260509064716 | 66 | 168 | 6.0 | 8.0 | 0.00 | 0.00 | 0.00 | 87 | 1011.3 |
| 20260509064004 | 66 | 169 | 6.0 | 9.0 | 0.00 | 0.00 | 0.00 | 88 | 1011.3 |
| 20260509063504 | 66 | 170 | 6.0 | 9.0 | 0.00 | 0.00 | 0.00 | 88 | 1011.3 |
| 20260509063004 | 67 | 138 | 5.0 | 9.0 | 0.00 | 0.00 | 0.00 | 88 | 1011.3 |
| 20260509062718 | 67 | 43 | 4.0 | 5.0 | 0.00 | 0.00 | 0.00 | 88 | 1011.3 |
| 20260509062004 | 66 | 19 | 3.0 | 4.0 | 0.00 | 0.00 | 0.00 | 88 | 1011.3 |
| 20260509061504 | 66 | 8 | 4.0 | 5.0 | 0.00 | 0.00 | 0.00 | 90 | 1011.3 |
| 20260509061004 | 66 | 356 | 3.0 | 5.0 | 0.00 | 0.00 | 0.00 | 90 | 1011.3 |
| 20260509060504 | 65 | 354 | 3.0 | 5.0 | 0.00 | 0.00 | 0.00 | 91 | 1011.3 |
| 20260509060005 | 65 | 22 | 4.0 | 7.0 | 0.00 | 0.00 | 0.00 | 92 | 1011.3 |
| 20260509055715 | 65 | 31 | 5.0 | 8.0 | 0.00 | 0.00 | 0.00 | 92 | 1011.3 |
| 20260509055004 | 64 | 27 | 5.0 | 8.0 | 0.00 | 0.00 | 0.00 | 93 | 1011.3 |
| 20260509054503 | 64 | 35 | 4.0 | 5.0 | 0.00 | 0.00 | 0.00 | 93 | 1011.3 |
| 20260509054003 | 63 | 22 | 4.0 | 5.0 | 0.00 | 0.00 | 0.00 | 94 | 1011.3 |
| 20260509053717 | 63 | 12 | 4.0 | 8.0 | 0.00 | 0.00 | 0.00 | 94 | 1011.3 |
| 20260509053215 | 62 | 14 | 5.0 | 8.0 | 0.00 | 0.00 | 0.00 | 94 | 1011.3 |
| 20260509052503 | 62 | 12 | 5.0 | 6.0 | 0.00 | 0.00 | 0.00 | 94 | 1011.3 |
| 20260509052004 | 61 | 8 | 5.0 | 8.0 | 0.00 | 0.00 | 0.00 | 94 | 1011.3 |
| 20260509051714 | 61 | 4 | 5.0 | 8.0 | 0.00 | 0.00 | 0.00 | 94 | 1011.3 |
| 20260509051003 | 60 | 360 | 6.0 | 9.0 | 0.00 | 0.00 | 0.00 | 94 | 1011.3 |
| 20260509050503 | 60 | 1 | 6.0 | 9.0 | 0.00 | 0.00 | 0.00 | 94 | 1011.3 |
| 20260509050213 | 60 | 360 | 6.0 | 9.0 | 0.00 | 0.00 | 0.00 | 94 | 1011.3 |
| 20260509045503 | 59 | 357 | 4.0 | 6.0 | 0.00 | 0.00 | 0.00 | 94 | 1011.3 |
| 20260509045214 | 59 | 354 | 4.0 | 5.0 | 0.00 | 0.00 | 0.00 | 94 | 1011.3 |
| 20260509044503 | 59 | 14 | 5.0 | 7.0 | 0.00 | 0.00 | 0.00 | 93 | 1011.3 |
| 20260509044003 | 58 | 12 | 5.0 | 7.0 | 0.00 | 0.00 | 0.00 | 93 | 1011.3 |
| 20260509043504 | 58 | 352 | 5.0 | 7.0 | 0.00 | 0.00 | 0.00 | 93 | 1011.3 |
| 20260509043004 | 57 | 357 | 6.0 | 9.0 | 0.00 | 0.00 | 0.00 | 92 | 1011.3 |
| 20260509042504 | 57 | 4 | 7.0 | 9.0 | 0.00 | 0.00 | 0.00 | 92 | 1011.3 |
| 20260509042004 | 57 | 359 | 6.0 | 9.0 | 0.00 | 0.00 | 0.00 | 91 | 1011.3 |
| 20260509041504 | 57 | 349 | 5.0 | 7.0 | 0.00 | 0.00 | 0.00 | 91 | 1011.3 |
| 20260509041004 | 57 | 332 | 4.0 | 5.0 | 0.00 | 0.00 | 0.00 | 91 | 1011.3 |
| 20260509040504 | 57 | 331 | 3.0 | 5.0 | 0.00 | 0.00 | 0.00 | 91 | 1011.3 |
| 20260509040004 | 57 | 337 | 3.0 | 5.0 | 0.00 | 0.00 | 0.00 | 91 | 1011.3 |
| 20260509035504 | 57 | 333 | 4.0 | 5.0 | 0.00 | 0.00 | 0.00 | 91 | 1011.3 |
| 20260509035004 | 57 | 328 | 3.0 | 5.0 | 0.00 | 0.00 | 0.00 | 91 | 1011.3 |
| 20260509034504 | 57 | 340 | 3.0 | 5.0 | 0.00 | 0.00 | 0.00 | 91 | 1011.3 |
| 20260509034004 | 57 | 346 | 3.0 | 5.0 | 0.00 | 0.00 | 0.00 | 91 | 1011.3 |
| 20260509033504 | 57 | 339 | 3.0 | 5.0 | 0.00 | 0.00 | 0.00 | 91 | 1011.3 |
| 20260509033004 | 57 | 333 | 3.0 | 4.0 | 0.00 | 0.00 | 0.00 | 91 | 1011.3 |
| 20260509032504 | 57 | 335 | 3.0 | 4.0 | 0.00 | 0.00 | 0.00 | 90 | 1011.3 |
| 20260509032217 | 57 | 341 | 3.0 | 5.0 | 0.00 | 0.00 | 0.00 | 90 | 1011.3 |
| 20260509031504 | 58 | 356 | 3.0 | 5.0 | 0.00 | 0.00 | 0.00 | 91 | 1011.3 |
| 20260509031005 | 58 | 350 | 4.0 | 5.0 | 0.00 | 0.00 | 0.00 | 91 | 1011.3 |
| 20260509030504 | 58 | 355 | 4.0 | 6.0 | 0.00 | 0.00 | 0.00 | 91 | 1011.3 |
| 20260509030215 | 58 | 357 | 4.0 | 6.0 | 0.00 | 0.00 | 0.00 | 91 | 1011.3 |
| 20260509025504 | 58 | 360 | 5.0 | 7.0 | 0.00 | 0.00 | 0.00 | 90 | 1011.3 |
| 20260509025004 | 58 | 355 | 6.0 | 8.0 | 0.00 | 0.00 | 0.00 | 90 | 1011.3 |
| 20260509024504 | 58 | 344 | 5.0 | 8.0 | 0.00 | 0.00 | 0.00 | 90 | 1011.3 |
| 20260509024004 | 58 | 338 | 4.0 | 5.0 | 0.00 | 0.00 | 0.00 | 90 | 1011.3 |
| 20260509023714 | 58 | 336 | 4.0 | 5.0 | 0.00 | 0.00 | 0.00 | 90 | 1011.3 |
| 20260509023004 | 58 | 349 | 4.0 | 5.0 | 0.00 | 0.00 | 0.00 | 90 | 1011.3 |
| 20260509022715 | 58 | 358 | 4.0 | 5.0 | 0.00 | 0.00 | 0.00 | 90 | 1011.3 |
| 20260509022004 | 58 | 359 | 5.0 | 7.0 | 0.00 | 0.00 | 0.00 | 90 | 1011.3 |
| 20260509021716 | 58 | 355 | 5.0 | 7.0 | 0.00 | 0.00 | 0.00 | 90 | 1011.3 |
| 20260509021004 | 58 | 340 | 4.0 | 5.0 | 0.00 | 0.00 | 0.00 | 90 | 1011.3 |
| 20260509020504 | 59 | 327 | 4.0 | 7.0 | 0.00 | 0.00 | 0.00 | 90 | 1011.3 |
| 20260509020004 | 59 | 326 | 5.0 | 8.0 | 0.00 | 0.00 | 0.00 | 89 | 1011.3 |
| 20260509015503 | 59 | 322 | 5.0 | 8.0 | 0.00 | 0.00 | 0.00 | 89 | 1011.3 |
| 20260509015003 | 59 | 320 | 5.0 | 8.0 | 0.00 | 0.00 | 0.00 | 89 | 1011.3 |
| 20260509014714 | 59 | 324 | 6.0 | 8.0 | 0.00 | 0.00 | 0.00 | 89 | 1011.3 |
| 20260509014003 | 59 | 323 | 8.0 | 11.0 | 0.00 | 0.00 | 0.00 | 88 | 1011.3 |
| 20260509013503 | 59 | 324 | 7.0 | 11.0 | 0.00 | 0.00 | 0.00 | 88 | 1011.3 |
| 20260509013003 | 58 | 324 | 4.0 | 5.0 | 0.00 | 0.00 | 0.00 | 87 | 1011.3 |
| 20260509012716 | 58 | 319 | 4.0 | 5.0 | 0.00 | 0.00 | 0.00 | 87 | 1011.3 |
| 20260509012003 | 58 | 321 | 5.0 | 6.0 | 0.00 | 0.00 | 0.00 | 87 | 1011.3 |
| 20260509011503 | 58 | 322 | 5.0 | 6.0 | 0.00 | 0.00 | 0.00 | 87 | 1011.3 |
| 20260509011003 | 58 | 319 | 5.0 | 5.0 | 0.00 | 0.00 | 0.00 | 86 | 1011.3 |
| 20260509010503 | 58 | 323 | 4.0 | 5.0 | 0.00 | 0.00 | 0.00 | 86 | 1011.3 |
| 20260509010004 | 58 | 322 | 5.0 | 7.0 | 0.00 | 0.00 | 0.00 | 85 | 1011.3 |
| 20260509005504 | 58 | 319 | 5.0 | 7.0 | 0.00 | 0.00 | 0.00 | 85 | 1011.3 |
| 20260509005004 | 58 | 320 | 6.0 | 7.0 | 0.00 | 0.00 | 0.00 | 85 | 1011.3 |
| 20260509004505 | 58 | 321 | 5.0 | 6.0 | 0.00 | 0.00 | 0.00 | 84 | 1011.3 |
| 20260509004217 | 58 | 319 | 4.0 | 5.0 | 0.00 | 0.00 | 0.00 | 84 | 1011.3 |
| 20260509003504 | 58 | 327 | 3.0 | 4.0 | 0.00 | 0.00 | 0.00 | 83 | 1011.3 |
| 20260509003004 | 58 | 333 | 2.0 | 4.0 | 0.00 | 0.00 | 0.00 | 83 | 1011.3 |
| 20260509002504 | 58 | 325 | 3.0 | 4.0 | 0.00 | 0.00 | 0.00 | 83 | 1011.3 |
| 20260509002004 | 58 | 319 | 4.0 | 6.0 | 0.00 | 0.00 | 0.00 | 83 | 1011.3 |
| 20260509001717 | 59 | 317 | 4.0 | 6.0 | 0.00 | 0.00 | 0.00 | 83 | 1011.3 |
| 20260509001004 | 59 | 327 | 6.0 | 8.0 | 0.00 | 0.00 | 0.00 | 82 | 1011.3 |
| 20260509000505 | 59 | 326 | 6.0 | 8.0 | 0.00 | 0.00 | 0.00 | 82 | 1011.3 |
| 20260509000219 | 59 | 322 | 7.0 | 8.0 | 0.00 | 0.00 | 0.00 | 81 | 1011.3 |
| 20260508235714 | 59 | 319 | 7.0 | 9.0 | 0.00 | 0.00 | 0.00 | 81 | 1011.3 |
| 20260508235004 | 59 | 324 | 6.0 | 9.0 | 0.00 | 0.00 | 0.00 | 81 | 1011.3 |
| 20260508234715 | 59 | 325 | 6.0 | 8.0 | 0.00 | 0.00 | 0.00 | 80 | 1011.3 |
| 20260508234004 | 59 | 320 | 7.0 | 9.0 | 0.00 | 0.00 | 0.00 | 80 | 1011.3 |
| 20260508233505 | 60 | 316 | 6.0 | 8.0 | 0.00 | 0.00 | 0.00 | 80 | 1011.3 |
| 20260508233004 | 60 | 313 | 5.0 | 8.0 | 0.00 | 0.00 | 0.00 | 80 | 1011.3 |
| 20260508232504 | 60 | 316 | 4.0 | 6.0 | 0.00 | 0.00 | 0.00 | 80 | 1011.3 |
| 20260508232004 | 60 | 321 | 5.0 | 6.0 | 0.00 | 0.00 | 0.00 | 80 | 1011.3 |
| 20260508231504 | 60 | 316 | 5.0 | 6.0 | 0.00 | 0.00 | 0.00 | 80 | 1011.3 |
| 20260508231004 | 60 | 316 | 5.0 | 6.0 | 0.00 | 0.00 | 0.00 | 80 | 1011.3 |
| 20260508230504 | 60 | 315 | 5.0 | 6.0 | 0.00 | 0.00 | 0.00 | 80 | 1011.3 |
| 20260508230004 | 61 | 316 | 5.0 | 6.0 | 0.00 | 0.00 | 0.00 | 80 | 1011.3 |
| 20260508225503 | 61 | 315 | 4.0 | 6.0 | 0.00 | 0.00 | 0.00 | 80 | 1011.3 |
| 20260508225004 | 61 | 313 | 3.0 | 4.0 | 0.00 | 0.00 | 0.00 | 80 | 1011.3 |
| 20260508224503 | 61 | 315 | 3.0 | 4.0 | 0.00 | 0.00 | 0.00 | 80 | 1011.3 |
| 20260508224003 | 61 | 313 | 4.0 | 5.0 | 0.00 | 0.00 | 0.00 | 80 | 1011.3 |
| 20260508223504 | 61 | 313 | 4.0 | 5.0 | 0.00 | 0.00 | 0.00 | 80 | 1011.3 |
| 20260508223004 | 61 | 311 | 4.0 | 5.0 | 0.00 | 0.00 | 0.00 | 80 | 1011.3 |
| 20260508222506 | 62 | 313 | 4.0 | 5.0 | 0.00 | 0.00 | 0.00 | 80 | 1011.3 |
| 20260508222003 | 62 | 311 | 4.0 | 5.0 | 0.00 | 0.00 | 0.00 | 80 | 1011.3 |
| 20260508221503 | 62 | 311 | 4.0 | 5.0 | 0.00 | 0.00 | 0.00 | 80 | 1011.3 |
| 20260508221004 | 62 | 315 | 3.0 | 4.0 | 0.00 | 0.00 | 0.00 | 80 | 1011.3 |
| 20260508220503 | 62 | 315 | 3.0 | 4.0 | 0.00 | 0.00 | 0.00 | 80 | 1011.3 |
| 20260508220004 | 62 | 315 | 2.0 | 3.0 | 0.00 | 0.00 | 0.00 | 80 | 1011.3 |
| 20260508215503 | 62 | 312 | 1.0 | 2.0 | 0.00 | 0.00 | 0.00 | 80 | 1011.3 |
| 20260508215003 | 62 | 294 | 1.0 | 4.0 | 0.00 | 0.00 | 0.00 | 80 | 1011.3 |
| 20260508214503 | 62 | 292 | 1.0 | 4.0 | 0.00 | 0.00 | 0.00 | 80 | 1011.3 |
| 20260508214214 | 62 | 357 | 1.0 | 4.0 | 0.00 | 0.00 | 0.00 | 80 | 1011.3 |
| 20260508213503 | 62 | 339 | 2.0 | 3.0 | 0.00 | 0.00 | 0.00 | 80 | 1011.3 |
| 20260508213003 | 62 | 315 | 2.0 | 3.0 | 0.00 | 0.00 | 0.00 | 80 | 1011.3 |
| 20260508212503 | 63 | 315 | 2.0 | 3.0 | 0.00 | 0.00 | 0.00 | 79 | 1011.3 |
| 20260508212003 | 63 | 320 | 2.0 | 3.0 | 0.00 | 0.00 | 0.00 | 79 | 1011.3 |
| 20260508211714 | 63 | 336 | 2.0 | 3.0 | 0.00 | 0.00 | 0.00 | 79 | 1011.3 |
| 20260508211004 | 63 | 329 | 3.0 | 4.0 | 0.00 | 0.00 | 0.00 | 80 | 1011.3 |
| 20260508210504 | 63 | 319 | 5.0 | 7.0 | 0.00 | 0.00 | 0.00 | 80 | 1011.3 |
| 20260508210004 | 63 | 330 | 5.0 | 7.0 | 0.00 | 0.00 | 0.00 | 80 | 1011.3 |
| 20260508205504 | 63 | 334 | 5.0 | 7.0 | 0.00 | 0.00 | 0.00 | 80 | 1011.3 |
| 20260508205004 | 64 | 321 | 6.0 | 8.0 | 0.00 | 0.00 | 0.00 | 80 | 1011.3 |
| 20260508204504 | 64 | 321 | 6.0 | 8.0 | 0.00 | 0.00 | 0.00 | 80 | 1011.3 |
| 20260508204005 | 64 | 320 | 6.0 | 11.0 | 0.00 | 0.00 | 0.00 | 80 | 1011.3 |
| 20260508203718 | 64 | 319 | 8.0 | 11.0 | 0.00 | 0.00 | 0.00 | 80 | 1011.3 |
| 20260508203005 | 64 | 327 | 10.0 | 17.0 | 0.00 | 0.00 | 0.00 | 80 | 1011.3 |
| 20260508202505 | 64 | 328 | 9.0 | 17.0 | 0.00 | 0.00 | 0.00 | 79 | 1011.3 |
| 20260508202004 | 64 | 323 | 7.0 | 9.0 | 0.00 | 0.00 | 0.00 | 79 | 1011.3 |
| 20260508201504 | 64 | 323 | 7.0 | 12.0 | 0.00 | 0.00 | 0.00 | 79 | 1011.3 |
| 20260508201218 | 64 | 319 | 8.0 | 12.0 | 0.00 | 0.00 | 0.00 | 79 | 1011.3 |
| 20260508200504 | 65 | 323 | 8.0 | 10.0 | 0.00 | 0.00 | 0.00 | 79 | 1010.3 |
| 20260508200005 | 65 | 325 | 7.0 | 9.0 | 0.00 | 0.00 | 0.00 | 79 | 1010.3 |
| 20260508195504 | 65 | 323 | 8.0 | 9.0 | 0.00 | 0.00 | 0.00 | 79 | 1011.3 |
| 20260508195004 | 65 | 330 | 7.0 | 9.0 | 0.00 | 0.00 | 0.00 | 78 | 1011.3 |
| 20260508194718 | 65 | 329 | 7.0 | 9.0 | 0.00 | 0.00 | 0.00 | 78 | 1011.3 |
| 20260508194004 | 65 | 319 | 6.0 | 8.0 | 0.00 | 0.00 | 0.00 | 78 | 1010.3 |
| 20260508193504 | 65 | 319 | 7.0 | 11.0 | 0.00 | 0.00 | 0.00 | 78 | 1010.3 |
| 20260508193004 | 65 | 317 | 8.0 | 11.0 | 0.00 | 0.00 | 0.00 | 78 | 1010.3 |
| 20260508192504 | 65 | 321 | 8.0 | 11.0 | 0.00 | 0.00 | 0.00 | 78 | 1010.3 |
| 20260508192004 | 65 | 316 | 7.0 | 11.0 | 0.00 | 0.00 | 0.00 | 78 | 1010.3 |
| 20260508191504 | 65 | 309 | 7.0 | 11.0 | 0.00 | 0.00 | 0.00 | 77 | 1010.3 |
| 20260508191004 | 65 | 318 | 8.0 | 13.0 | 0.00 | 0.00 | 0.00 | 77 | 1010.3 |
| 20260508190503 | 65 | 319 | 9.0 | 13.0 | 0.00 | 0.00 | 0.00 | 77 | 1010.3 |
| 20260508190214 | 65 | 317 | 9.0 | 13.0 | 0.00 | 0.00 | 0.00 | 77 | 1010.3 |
| 20260508185503 | 65 | 319 | 8.0 | 11.0 | 0.00 | 0.00 | 0.00 | 78 | 1010.3 |
| 20260508185215 | 65 | 319 | 9.0 | 11.0 | 0.00 | 0.00 | 0.00 | 78 | 1010.3 |
| 20260508184504 | 66 | 321 | 9.0 | 10.0 | 0.00 | 0.00 | 0.00 | 78 | 1010.3 |
| 20260508184217 | 66 | 321 | 9.0 | 11.0 | 0.00 | 0.00 | 0.00 | 77 | 1010.3 |
| 20260508183503 | 66 | 314 | 9.0 | 11.0 | 0.00 | 0.00 | 0.00 | 77 | 1010.3 |
| 20260508183003 | 66 | 311 | 8.0 | 11.0 | 0.00 | 0.00 | 0.00 | 77 | 1010.3 |
| 20260508182504 | 66 | 308 | 8.0 | 11.0 | 0.00 | 0.00 | 0.00 | 77 | 1009.3 |
| 20260508182003 | 66 | 307 | 9.0 | 11.0 | 0.00 | 0.00 | 0.00 | 77 | 1009.3 |
| 20260508181503 | 66 | 306 | 9.0 | 12.0 | 0.00 | 0.00 | 0.00 | 76 | 1009.3 |
| 20260508181003 | 66 | 302 | 9.0 | 12.0 | 0.00 | 0.00 | 0.00 | 76 | 1009.3 |
| 20260508180503 | 66 | 309 | 10.0 | 12.0 | 0.00 | 0.00 | 0.00 | 76 | 1009.3 |
| 20260508180003 | 66 | 309 | 10.0 | 12.0 | 0.00 | 0.00 | 0.00 | 76 | 1009.3 |
| 20260508175503 | 67 | 303 | 11.0 | 13.0 | 0.00 | 0.00 | 0.00 | 76 | 1009.3 |
| 20260508175004 | 67 | 300 | 11.0 | 16.0 | 0.00 | 0.00 | 0.00 | 76 | 1009.3 |
| 20260508174503 | 67 | 300 | 13.0 | 18.0 | 0.00 | 0.00 | 0.00 | 76 | 1009.3 |
| 20260508174003 | 67 | 295 | 13.0 | 18.0 | 0.00 | 0.00 | 0.00 | 76 | 1009.3 |
| 20260508173504 | 67 | 295 | 13.0 | 15.0 | 0.00 | 0.00 | 0.00 | 75 | 1009.3 |
| 20260508173004 | 68 | 301 | 13.0 | 17.0 | 0.00 | 0.00 | 0.00 | 75 | 1009.3 |
| 20260508172505 | 68 | 295 | 12.0 | 17.0 | 0.00 | 0.00 | 0.00 | 75 | 1009.3 |
| 20260508172004 | 68 | 289 | 12.0 | 15.0 | 0.00 | 0.00 | 0.00 | 74 | 1009.3 |
| 20260508171504 | 68 | 301 | 13.0 | 19.0 | 0.00 | 0.00 | 0.00 | 74 | 1009.3 |
| 20260508171215 | 68 | 297 | 13.0 | 19.0 | 0.00 | 0.00 | 0.00 | 74 | 1009.3 |
| 20260508170504 | 69 | 289 | 14.0 | 18.0 | 0.00 | 0.00 | 0.00 | 74 | 1009.3 |
| 20260508170004 | 69 | 285 | 14.0 | 18.0 | 0.00 | 0.00 | 0.00 | 73 | 1009.3 |
| 20260508165713 | 69 | 283 | 13.0 | 18.0 | 0.00 | 0.00 | 0.00 | 73 | 1009.3 |
| 20260508165004 | 69 | 290 | 14.0 | 18.0 | 0.00 | 0.00 | 0.00 | 72 | 1009.3 |
| 20260508164505 | 69 | 285 | 15.0 | 18.0 | 0.00 | 0.00 | 0.00 | 72 | 1009.3 |
| 20260508164004 | 69 | 275 | 12.0 | 16.0 | 0.00 | 0.00 | 0.00 | 72 | 1009.3 |
| 20260508163504 | 70 | 278 | 12.0 | 15.0 | 0.00 | 0.00 | 0.00 | 72 | 1009.3 |
| 20260508163004 | 70 | 273 | 12.0 | 15.0 | 0.00 | 0.00 | 0.00 | 72 | 1009.3 |
| 20260508162504 | 70 | 270 | 12.0 | 15.0 | 0.00 | 0.00 | 0.00 | 72 | 1009.3 |
| 20260508162004 | 70 | 279 | 12.0 | 17.0 | 0.00 | 0.00 | 0.00 | 72 | 1009.3 |
| 20260508161504 | 70 | 286 | 11.0 | 17.0 | 0.00 | 0.00 | 0.00 | 73 | 1009.3 |
| 20260508161004 | 70 | 289 | 10.0 | 14.0 | 0.00 | 0.00 | 0.00 | 72 | 1009.3 |
| 20260508160504 | 70 | 289 | 9.0 | 14.0 | 0.00 | 0.00 | 0.00 | 73 | 1009.3 |
| 20260508160004 | 70 | 279 | 10.0 | 14.0 | 0.00 | 0.00 | 0.00 | 73 | 1009.3 |
| 20260508155504 | 70 | 283 | 12.0 | 17.0 | 0.00 | 0.00 | 0.00 | 73 | 1009.3 |
| 20260508155217 | 70 | 285 | 12.0 | 17.0 | 0.00 | 0.00 | 0.00 | 73 | 1009.3 |
| 20260508154504 | 70 | 281 | 14.0 | 19.0 | 0.00 | 0.00 | 0.00 | 72 | 1009.3 |
| 20260508154213 | 70 | 278 | 14.0 | 19.0 | 0.00 | 0.00 | 0.00 | 72 | 1009.3 |
| 20260508153503 | 70 | 285 | 11.0 | 17.0 | 0.00 | 0.00 | 0.00 | 72 | 1009.3 |
| 20260508153003 | 70 | 287 | 11.0 | 20.0 | 0.00 | 0.00 | 0.00 | 71 | 1009.3 |
| 20260508152504 | 70 | 279 | 12.0 | 20.0 | 0.00 | 0.00 | 0.00 | 70 | 1009.3 |
| 20260508152215 | 71 | 282 | 12.0 | 17.0 | 0.00 | 0.00 | 0.00 | 70 | 1009.3 |
| 20260508151504 | 71 | 285 | 12.0 | 17.0 | 0.00 | 0.00 | 0.00 | 70 | 1009.3 |
| 20260508151003 | 71 | 280 | 12.0 | 15.0 | 0.00 | 0.00 | 0.00 | 71 | 1009.3 |
| 20260508150503 | 71 | 275 | 13.0 | 15.0 | 0.00 | 0.00 | 0.00 | 70 | 1009.3 |
| 20260508150004 | 71 | 281 | 13.0 | 15.0 | 0.00 | 0.00 | 0.00 | 70 | 1009.3 |
| 20260508145503 | 71 | 283 | 12.0 | 15.0 | 0.00 | 0.00 | 0.00 | 71 | 1009.3 |
| 20260508145213 | 71 | 287 | 12.0 | 14.0 | 0.00 | 0.00 | 0.00 | 71 | 1009.3 |
| 20260508144504 | 71 | 280 | 12.0 | 16.0 | 0.00 | 0.00 | 0.00 | 71 | 1009.3 |
| 20260508144003 | 71 | 275 | 11.0 | 16.0 | 0.00 | 0.00 | 0.00 | 71 | 1009.3 |
| 20260508143503 | 71 | 272 | 12.0 | 20.0 | 0.00 | 0.00 | 0.00 | 71 | 1009.3 |
| 20260508143003 | 71 | 279 | 13.0 | 20.0 | 0.00 | 0.00 | 0.00 | 71 | 1009.3 |
| 20260508142503 | 71 | 270 | 11.0 | 16.0 | 0.00 | 0.00 | 0.00 | 70 | 1009.3 |
| 20260508142215 | 72 | 273 | 11.0 | 15.0 | 0.00 | 0.00 | 0.00 | 70 | 1009.3 |
| 20260508141503 | 71 | 283 | 12.0 | 15.0 | 0.00 | 0.00 | 0.00 | 71 | 1009.3 |
| 20260508141003 | 71 | 270 | 12.0 | 21.0 | 0.00 | 0.00 | 0.00 | 71 | 1009.3 |
| 20260508140503 | 71 | 266 | 13.0 | 21.0 | 0.00 | 0.00 | 0.00 | 71 | 1009.3 |
| 20260508140004 | 71 | 276 | 13.0 | 21.0 | 0.00 | 0.00 | 0.00 | 70 | 1009.3 |
| 20260508135504 | 71 | 277 | 11.0 | 17.0 | 0.00 | 0.00 | 0.00 | 71 | 1009.3 |
| 20260508135005 | 71 | 280 | 12.0 | 17.0 | 0.00 | 0.00 | 0.00 | 70 | 1009.3 |
| 20260508134505 | 71 | 268 | 13.0 | 17.0 | 0.00 | 0.00 | 0.00 | 70 | 1009.3 |
| 20260508134004 | 71 | 253 | 12.0 | 18.0 | 0.00 | 0.00 | 0.00 | 69 | 1009.3 |
| 20260508133504 | 71 | 252 | 12.0 | 21.0 | 0.00 | 0.00 | 0.00 | 69 | 1009.3 |
| 20260508133004 | 71 | 249 | 12.0 | 21.0 | 0.00 | 0.00 | 0.00 | 69 | 1009.3 |
| 20260508132504 | 71 | 256 | 11.0 | 17.0 | 0.00 | 0.00 | 0.00 | 69 | 1009.3 |
| 20260508132004 | 71 | 265 | 12.0 | 17.0 | 0.00 | 0.00 | 0.00 | 68 | 1009.3 |
| 20260508131504 | 71 | 266 | 12.0 | 15.0 | 0.00 | 0.00 | 0.00 | 67 | 1009.3 |
| 20260508131217 | 71 | 261 | 12.0 | 17.0 | 0.00 | 0.00 | 0.00 | 67 | 1009.3 |
| 20260508130510 | 71 | 264 | 11.0 | 17.0 | 0.00 | 0.00 | 0.00 | 69 | 1009.3 |
| 20260508130004 | 71 | 267 | 12.0 | 20.0 | 0.00 | 0.00 | 0.00 | 68 | 1009.3 |
| 20260508125504 | 71 | 287 | 14.0 | 20.0 | 0.00 | 0.00 | 0.00 | 71 | 1009.3 |
| 20260508125005 | 70 | 234 | 15.0 | 24.0 | 0.00 | 0.00 | 0.00 | 71 | 1009.3 |
| 20260508124504 | 70 | 208 | 14.0 | 24.0 | 0.00 | 0.00 | 0.00 | 72 | 1009.3 |
| 20260508124215 | 71 | 208 | 14.0 | 24.0 | 0.00 | 0.00 | 0.00 | 72 | 1009.3 |
| 20260508123504 | 71 | 195 | 12.0 | 15.0 | 0.00 | 0.00 | 0.00 | 73 | 1009.3 |
| 20260508123216 | 71 | 222 | 11.0 | 18.0 | 0.00 | 0.00 | 0.00 | 73 | 1009.3 |
| 20260508122504 | 70 | 239 | 15.0 | 21.0 | 0.00 | 0.00 | 0.00 | 72 | 1009.3 |
| 20260508122004 | 70 | 209 | 14.0 | 21.0 | 0.00 | 0.00 | 0.00 | 73 | 1009.3 |
| 20260508121504 | 71 | 192 | 13.0 | 19.0 | 0.00 | 0.00 | 0.00 | 73 | 1009.3 |
| 20260508121218 | 71 | 203 | 12.0 | 19.0 | 0.00 | 0.00 | 0.00 | 73 | 1009.3 |
| 20260508120716 | 71 | 245 | 13.0 | 15.0 | 0.00 | 0.00 | 0.00 | 72 | 1009.3 |
| 20260508120004 | 70 | 269 | 13.0 | 18.0 | 0.00 | 0.00 | 0.00 | 71 | 1009.3 |
| 20260508115717 | 70 | 256 | 14.0 | 26.0 | 0.00 | 0.00 | 0.00 | 72 | 1009.3 |
| 20260508115004 | 70 | 238 | 17.0 | 26.0 | 0.00 | 0.00 | 0.00 | 73 | 1009.3 |
| 20260508114503 | 69 | 213 | 15.0 | 21.0 | 0.00 | 0.00 | 0.00 | 74 | 1009.3 |
| 20260508114004 | 69 | 187 | 16.0 | 22.0 | 0.00 | 0.00 | 0.00 | 75 | 1009.3 |
| 20260508113503 | 69 | 186 | 15.0 | 22.0 | 0.00 | 0.00 | 0.00 | 75 | 1009.3 |
| 20260508113004 | 69 | 208 | 16.0 | 22.0 | 0.00 | 0.00 | 0.00 | 74 | 1009.3 |
| 20260508112503 | 69 | 214 | 16.0 | 21.0 | 0.00 | 0.00 | 0.00 | 75 | 1009.3 |
| 20260508112003 | 69 | 215 | 14.0 | 18.0 | 0.00 | 0.00 | 0.00 | 75 | 1009.3 |
| 20260508111503 | 69 | 218 | 14.0 | 21.0 | 0.00 | 0.00 | 0.00 | 75 | 1009.3 |
| 20260508111003 | 69 | 214 | 13.0 | 21.0 | 0.00 | 0.00 | 0.00 | 75 | 1009.3 |
| 20260508110503 | 69 | 238 | 12.0 | 15.0 | 0.00 | 0.00 | 0.00 | 75 | 1009.3 |
| 20260508110004 | 70 | 243 | 13.0 | 19.0 | 0.00 | 0.00 | 0.00 | 75 | 1009.3 |
| 20260508105503 | 69 | 191 | 12.0 | 19.0 | 0.00 | 0.00 | 0.00 | 75 | 1009.3 |
| 20260508105003 | 70 | 180 | 11.0 | 14.0 | 0.00 | 0.00 | 0.00 | 75 | 1009.3 |
| 20260508104503 | 69 | 184 | 12.0 | 14.0 | 0.00 | 0.00 | 0.00 | 75 | 1009.3 |
| 20260508104003 | 69 | 235 | 12.0 | 14.0 | 0.00 | 0.00 | 0.00 | 75 | 1009.3 |
| 20260508103503 | 69 | 236 | 12.0 | 14.0 | 0.00 | 0.00 | 0.00 | 75 | 1009.3 |
| 20260508103004 | 70 | 201 | 11.0 | 14.0 | 0.00 | 0.00 | 0.00 | 75 | 1009.3 |
| 20260508102503 | 70 | 219 | 12.0 | 15.0 | 0.00 | 0.00 | 0.00 | 75 | 1009.3 |
| 20260508102213 | 70 | 233 | 12.0 | 15.0 | 0.00 | 0.00 | 0.00 | 75 | 1009.3 |
| 20260508101504 | 70 | 224 | 12.0 | 17.0 | 0.00 | 0.00 | 0.00 | 75 | 1009.3 |
| 20260508101004 | 69 | 217 | 12.0 | 17.0 | 0.00 | 0.00 | 0.00 | 75 | 1009.3 |
| 20260508100504 | 69 | 233 | 11.0 | 15.0 | 0.00 | 0.00 | 0.00 | 75 | 1009.3 |
| 20260508100004 | 69 | 208 | 11.0 | 16.0 | 0.00 | 0.00 | 0.00 | 76 | 1009.3 |
| 20260508095504 | 69 | 191 | 11.0 | 16.0 | 0.00 | 0.00 | 0.00 | 75 | 1009.3 |
| 20260508095004 | 69 | 202 | 9.0 | 15.0 | 0.00 | 0.00 | 0.00 | 76 | 1009.3 |
| 20260508094504 | 69 | 243 | 9.0 | 15.0 | 0.00 | 0.00 | 0.00 | 76 | 1009.3 |
| 20260508094217 | 69 | 216 | 10.0 | 15.0 | 0.00 | 0.00 | 0.00 | 76 | 1009.3 |
| 20260508093504 | 69 | 200 | 11.0 | 15.0 | 0.00 | 0.00 | 0.00 | 76 | 1008.3 |
| 20260508093004 | 69 | 205 | 9.0 | 12.0 | 0.00 | 0.00 | 0.00 | 76 | 1008.3 |
| 20260508092504 | 69 | 197 | 8.0 | 12.0 | 0.00 | 0.00 | 0.00 | 76 | 1008.3 |
| 20260508092004 | 68 | 208 | 8.0 | 14.0 | 0.00 | 0.00 | 0.00 | 76 | 1008.3 |
| 20260508091504 | 69 | 200 | 9.0 | 14.0 | 0.00 | 0.00 | 0.00 | 77 | 1008.3 |
| 20260508091004 | 68 | 191 | 9.0 | 12.0 | 0.00 | 0.00 | 0.00 | 77 | 1008.3 |
| 20260508090504 | 68 | 219 | 9.0 | 14.0 | 0.00 | 0.00 | 0.00 | 77 | 1008.3 |